WetterOnline ( https://www.wetteronline.de )

Wetter aktuell Waren (Müritz)

Aktuelles Wetter: Waren (71m)

6-stündlich | Neueste Meldungen
Ortszeit Temperatur Wetter
Do, 25.04. 14:00 9.1° C wolkig
Do, 25.04. 8:00 4.6° C fast wolkenlos
Do, 25.04. 2:00 3.2° C fast wolkenlos
Mi, 24.04. 20:00 7.0° C leicht bewölkt
Mi, 24.04. 14:00 8.2° C bewölkt
Mi, 24.04. 8:00 4.5° C leichter Regen
Mi, 24.04. 2:00 5.9° C bedeckt
Di, 23.04. 20:00 6.1° C bewölkt
Ortszeit Temperatur Wetter
Do, 25.04. 16:00 9.0° C wolkig
Do, 25.04. 15:50 9.0° C bedeckt
Do, 25.04. 15:40 8.2° C bewölkt
Do, 25.04. 15:30 7.7° C bedeckt
Do, 25.04. 15:20 7.7° C bedeckt
Do, 25.04. 15:10 7.4° C bedeckt
Do, 25.04. 15:00 6.9° C leichter Regen
Do, 25.04. 14:30 6.8° C bewölkt
Do, 25.04. 14:00 9.1° C wolkig
Do, 25.04. 13:30 9.1° C bedeckt
Do, 25.04. 13:00 8.0° C bewölkt
Ortszeit Relative Feuchte Sichtweite
Do, 25.04. 14:00 62% 65 km
Do, 25.04. 8:00 84% 26 km
Do, 25.04. 2:00 90% 30 km
Mi, 24.04. 20:00 67% 55 km
Mi, 24.04. 14:00 71% 35 km
Mi, 24.04. 8:00 80% 29 km
Mi, 24.04. 2:00 67% 55 km
Di, 23.04. 20:00 60% 65 km
Ortszeit Relative Feuchte Sichtweite
Do, 25.04. 16:00 69% >70 km
Do, 25.04. 15:50 69% -
Do, 25.04. 15:40 69% -
Do, 25.04. 15:30 71% 50 km
Do, 25.04. 15:20 71% -
Do, 25.04. 15:10 73% -
Do, 25.04. 15:00 75% 40 km
Do, 25.04. 14:30 79% >70 km
Do, 25.04. 14:00 62% 65 km
Do, 25.04. 13:30 58% 50 km
Do, 25.04. 13:00 66% >70 km
Ortszeit Niederschlagsmenge Niederschlagsart
Do, 25.04. 14:00 0.0 l/m2 in 6 Std. -
Do, 25.04. 8:00 0.1 l/m2 in 12 Std. Regen
Do, 25.04. 2:00 0.1 l/m2 in 6 Std. Regen
Mi, 24.04. 20:00 0.1 l/m2 in 12 Std. Regen
Mi, 24.04. 14:00 0.1 l/m2 in 6 Std. Regen
Mi, 24.04. 8:00 0.1 l/m2 in 12 Std. Regen
Mi, 24.04. 2:00 0.0 l/m2 in 6 Std. -
Di, 23.04. 20:00 0.1 l/m2 in 12 Std. -
Ortszeit Niederschlagsmenge Niederschlagsart
Do, 25.04. 16:00 0.1 l/m2 in 1 Std. Regen
Do, 25.04. 15:50 keine Meldung -
Do, 25.04. 15:40 keine Meldung -
Do, 25.04. 15:30 0.1 l/m2 in 30 Min Schneeregen
Do, 25.04. 15:20 keine Meldung -
Do, 25.04. 15:10 keine Meldung -
Do, 25.04. 15:00 <0.05 l/m2 in 1 Std. Regen
Do, 25.04. 14:30 0.0 l/m2 in 30 Min -
Do, 25.04. 14:00 0.0 l/m2 in 1 Std. -
Do, 25.04. 13:30 0.0 l/m2 in 30 Min -
Do, 25.04. 13:00 0.0 l/m2 in 1 Std. -
Ortszeit Stärke Spitze Richtung
km/h Bft. km/h Grad Sektor
Do, 25.04. 14:00 14 3 25 140° SO
Do, 25.04. 8:00 6 1 17 60° NO
Do, 25.04. 2:00 7 2 22 60° NO
Mi, 24.04. 20:00 7 2 30 100° O
Mi, 24.04. 14:00 20 4 33 200° S
Mi, 24.04. 8:00 15 3 31 160° S
Mi, 24.04. 2:00 14 3 25 180° S
Di, 23.04. 20:00 4 1 29 220° SW
Ortszeit Stärke Spitze Richtung
km/h Bft. km/h Grad Sektor
Do, 25.04. 16:00 11 2 22 160° S
Do, 25.04. 15:50 11 2 - 160° S
Do, 25.04. 15:40 9 2 - 160° S
Do, 25.04. 15:30 11 2 22 150° SO
Do, 25.04. 15:20 11 2 - 150° SO
Do, 25.04. 15:10 11 2 - 150° SO
Do, 25.04. 15:00 17 3 37 180° S
Do, 25.04. 14:30 28 4 37 200° S
Do, 25.04. 14:00 14 3 25 140° SO
Do, 25.04. 13:30 15 3 26 140° SO
Do, 25.04. 13:00 18 3 25 150° SO
Ortszeit Untergrenze Bedeckung Gattung
total tief tief mittel hoch
Do, 25.04. 14:00 1500 m 8/8 8/8 - - -
Do, 25.04. 8:00 1800 m 1/8 1/8 - - -
Do, 25.04. 2:00 1260 m 1/8 1/8 - - -
Mi, 24.04. 20:00 1500 m 2/8 2/8 - - -
Mi, 24.04. 14:00 1020 m 7/8 7/8 - - -
Mi, 24.04. 8:00 630 m 7/8 7/8 - - -
Mi, 24.04. 2:00 1500 m 8/8 8/8 - - -
Di, 23.04. 20:00 1500 m 7/8 7/8 - - -
Ortszeit Bedeckungsgrad in Achtel und Wolkenuntergrenze
Do, 25.04. 16:00 3(3000m) 7(3600m) 8(6000m)
Do, 25.04. 15:50 3(3000m) 7(3600m) 8(6000m)
Do, 25.04. 15:40 7
Do, 25.04. 15:30 4(2100m) 8(2700m) 8(3900m)
Do, 25.04. 15:20 4(2100m) 8(2700m) 8(3900m)
Do, 25.04. 15:10 8
Do, 25.04. 15:00 1(720m) 7(1500m) 8(1800m)
Do, 25.04. 14:30 2(540m) 6(780m) 7(1020m)
Do, 25.04. 14:00 1(1500m) 8(2100m)
Do, 25.04. 13:30 7(1800m) 8(2100m) 8(2700m)
Do, 25.04. 13:00 3(900m) 7(2100m) 7(2700m)
Ortszeit Luftdruck NN (hPa) Tendenz (hPa in 3 Std.)
Do, 25.04. 14:00 1004 0,0
Do, 25.04. 8:00 1004 0,0
Do, 25.04. 2:00 1005 - 0,7
Mi, 24.04. 20:00 1005 - 0,5
Mi, 24.04. 14:00 1006 - 0,9
Mi, 24.04. 8:00 1008 - 1,2
Mi, 24.04. 2:00 1010 - 2,1
Di, 23.04. 20:00 1014 - 1,8
Ortszeit Luftdruck NN (hPa) Tendenz (hPa in 3 Std.)
Do, 25.04. 16:00 1004 0,0
Do, 25.04. 15:50 1004 keine Meldung
Do, 25.04. 15:40 1004 keine Meldung
Do, 25.04. 15:30 1004 + 0,3
Do, 25.04. 15:20 1004 keine Meldung
Do, 25.04. 15:10 1004 keine Meldung
Do, 25.04. 15:00 1004 + 0,3
Do, 25.04. 14:30 1004 + 0,2
Do, 25.04. 14:00 1004 0,0
Do, 25.04. 13:30 1004 - 0,1
Do, 25.04. 13:00 1004 - 0,3
Ortszeit Schneehöhe (cm)
Do, 25.04. 14:00 0
Do, 25.04. 8:00 0
Do, 25.04. 2:00 0
Mi, 24.04. 20:00 0
Mi, 24.04. 14:00 0
Mi, 24.04. 8:00 0
Mi, 24.04. 2:00 0
Di, 23.04. 20:00 0
Ortszeit Schneehöhe (cm)
Do, 25.04. 16:00 0
Do, 25.04. 15:50 0
Do, 25.04. 15:40 -
Do, 25.04. 15:30 0
Do, 25.04. 15:20 0
Do, 25.04. 15:10 -
Do, 25.04. 15:00 0
Do, 25.04. 14:30 0
Do, 25.04. 14:00 0
Do, 25.04. 13:30 0
Do, 25.04. 13:00 0
Link zu dieser Seite / Seite empfehlen

Das Wetter in ...